Share

Taylor, LA (71080)

Germantown (KLAMINDE3) Elev 341 ft | 32.67 °N, 93.25 °W | Change Station

Current weather conditions updated 10 minutes ago

Scattered Clouds
Scattered Clouds
68.2 °F
Feels Like 68.2 °F
N
4.7
Wind Variable Wind from ESE
Sunrise 6:40 AM
Sunset 7:43 PM
Moon Waning Gibbous

Tomorrow is forecast to be Warmer than today.

Pressure 30.14 in
Visibility 10.0 miles
Clouds Scattered Clouds 11000 ft
Dew Point 51 °F
Humidity 54%
Rainfall 0.00 in
Snow Depth Not available.
UV 2 out of 16
Pollen 8.80 out of 12
Air Quality Not available.
Flu Activity Local Activity
METAR KMNE 172235Z AUTO 11004KT 10SM SCT110 21/09 A3014 RMK AO2 T02050088

More Conditions Fewer Conditions

Pressure 30.14 in
Visibility 10.0 miles
Clouds Scattered Clouds 11000 ft
Dew Point 51 °F
Humidity 54%
Rainfall 0.00 in
Snow Depth Not available.
UV 2 out of 16
Pollen 8.80 out of 12
Air Quality Not available.
Flu Activity Local Activity
METAR KMNE 172235Z AUTO 11004KT 10SM SCT110 21/09 A3014 RMK AO2 T02050088

More Conditions Fewer Conditions

10-Day Forecast

Almanac

Astronomy

Apr. 17, 2014 Rise Set
Actual Time 6:40 AM CDT 7:43 PM CDT
Civil Twilight 6:15 AM CDT 8:08 PM CDT
Nautical Twilight 5:45 AM CDT 8:39 PM CDT
Astronomical Twilight 5:14 AM CDT 9:10 PM CDT
Moon 10:23 PM CDT 8:18 AM CDT
Length of Visible Light 13h 53m
Length of Day
13h 02m
Tomorrow will be 1m 52s longer.
Waning Gibbous, 92% of the Moon is Illuminated
Today
Waning Gibbous
Apr 22
Last Quarter
Apr 29
New
May 6
First Quarter
May 14
Full

Today's Extremes

State Highs State Lows

Community

  • Morning Light
    Morning Light
  • New Day
    New Day
  • Lake Michigan Sunrise
    Lake Michigan Sunrise
  • sunset from izmir, narlıdere
    sunset from izmir, narlıdere
  • oregon cherry
    oregon cherry

WunderPhotos

Upload Photos

1,702,156 photos uploaded!

WunderBlogs® & News

Nearby

Snow Depth

Station Depth Elevation
No new snow has been reported.

Coastal Water Temperatures

Place Temperature
No Stations Reporting

Earthquake Activity

City Distance Mag. Time & Date
No recent earthquake activity has been reported nearby.
Minimum magnitude displayed is 2.5.

Nearby Weather Stations

Station Location Temp. Dew Point Humidity Wind Precip. Elev Updated Type
Germantown, Minden, LA 68.2 °F 51 °F 54% ESE  at  4.7 mph - / hr 341 ft 5:40 PM CDT Normal
RAWS CANEY LA, Homer, LA 69 °F 49 °F 49% East  at  8 mph 0.00 in / hr 229 ft 4:58 PM CDT MADIS

Show More Stations Show Fewer Stations

What do you think?

We're not finished. Please let us know what you like, what you don't like, and what you are still missing.